createdAt,value
2019-03-26T00:02:25.437Z,6.44
2019-03-26T00:04:57.603Z,6.47
2019-03-26T00:07:29.768Z,6.48
2019-03-26T00:10:01.809Z,6.45
2019-03-26T00:12:33.930Z,6.50
2019-03-26T00:15:06.158Z,6.50
2019-03-26T00:17:38.429Z,6.33
2019-03-26T00:20:10.838Z,6.47
2019-03-26T00:22:43.132Z,6.44
2019-03-26T00:25:15.355Z,6.36
2019-03-26T00:27:47.467Z,6.43
2019-03-26T00:30:19.615Z,6.44
2019-03-26T00:38:04.135Z,6.44
2019-03-26T00:40:36.353Z,6.38
2019-03-26T00:43:08.776Z,6.41
2019-03-26T00:45:40.897Z,6.34
2019-03-26T00:48:13.141Z,6.33
2019-03-26T00:50:45.389Z,6.37
2019-03-26T00:53:17.582Z,6.33
2019-03-26T00:55:49.775Z,6.35
2019-03-26T00:58:21.924Z,6.31
2019-03-26T01:00:54.178Z,6.27
2019-03-26T01:03:26.455Z,6.40
2019-03-26T01:06:01.029Z,6.35
2019-03-26T01:08:33.136Z,6.33
2019-03-26T01:11:06.099Z,6.30
2019-03-26T01:13:38.192Z,6.29
2019-03-26T01:16:10.633Z,6.20
2019-03-26T01:18:42.753Z,6.22
2019-03-26T01:21:15.013Z,6.27
2019-03-26T01:23:47.219Z,6.23
2019-03-26T01:26:19.406Z,6.26
2019-03-26T01:28:51.627Z,6.20
2019-03-26T01:31:24.016Z,6.18
2019-03-26T01:33:56.223Z,6.21
2019-03-26T01:36:28.332Z,6.23
2019-03-26T01:39:00.858Z,6.22
2019-03-26T01:41:33.023Z,6.15
2019-03-26T01:44:05.419Z,6.22
2019-03-26T01:46:37.696Z,6.23
2019-03-26T01:49:09.860Z,6.14
2019-03-26T01:51:42.187Z,5.99
2019-03-26T01:54:14.350Z,6.19
2019-03-26T01:56:46.612Z,6.20
2019-03-26T01:59:18.888Z,6.26
2019-03-26T02:01:51.037Z,6.19
2019-03-26T02:04:23.306Z,6.11
2019-03-26T02:06:55.444Z,6.14
2019-03-26T02:09:27.607Z,6.16
2019-03-26T02:11:59.743Z,6.13
2019-03-26T02:14:31.969Z,6.22
2019-03-26T02:17:04.376Z,6.25
2019-03-26T02:19:36.515Z,6.17
2019-03-26T02:22:08.716Z,6.11
2019-03-26T02:24:40.948Z,6.06
2019-03-26T02:27:13.167Z,6.09
2019-03-26T02:29:45.338Z,6.16
2019-03-26T02:32:17.482Z,5.93
2019-03-26T02:34:49.608Z,6.10
2019-03-26T02:37:21.781Z,6.05
2019-03-26T02:39:54.113Z,6.06
2019-03-26T02:42:26.385Z,6.12
2019-03-26T02:44:58.478Z,6.01
2019-03-26T02:47:30.524Z,6.01
2019-03-26T02:50:02.704Z,5.94
2019-03-26T02:52:34.867Z,6.13
2019-03-26T02:55:07.448Z,6.10
2019-03-26T02:57:39.584Z,6.13
2019-03-26T03:00:12.905Z,6.20
2019-03-26T03:02:45.052Z,6.07
2019-03-26T03:05:33.794Z,6.13
2019-03-26T03:07:51.257Z,6.14
2019-03-26T03:10:23.465Z,6.09
2019-03-26T03:12:55.652Z,6.02
2019-03-26T03:15:27.826Z,6.06
2019-03-26T03:17:59.914Z,6.03
2019-03-26T03:20:32.013Z,5.97
2019-03-26T03:23:04.583Z,6.02
2019-03-26T03:25:36.747Z,6.01
2019-03-26T03:28:08.911Z,6.04
2019-03-26T03:30:40.990Z,6.08
2019-03-26T03:33:13.310Z,6.04
2019-03-26T03:35:52.470Z,5.93
2019-03-26T03:38:19.463Z,6.02
2019-03-26T03:40:51.578Z,5.92
2019-03-26T03:43:23.881Z,5.85
2019-03-26T03:45:57.230Z,5.94
2019-03-26T03:48:29.698Z,5.94
2019-03-26T03:51:04.281Z,5.90
2019-03-26T03:53:36.970Z,5.99
2019-03-26T03:56:11.344Z,6.10
2019-03-26T03:58:48.417Z,6.02
2019-03-26T04:01:20.655Z,5.86
2019-03-26T04:03:52.797Z,5.82
2019-03-26T04:06:24.967Z,5.84
2019-03-26T04:08:57.233Z,5.91
2019-03-26T04:11:29.616Z,5.84
2019-03-26T04:14:01.978Z,5.83
2019-03-26T04:16:34.336Z,5.80
2019-03-26T04:19:06.690Z,5.81
2019-03-26T04:21:38.969Z,5.69
2019-03-26T04:24:11.351Z,5.79
2019-03-26T04:26:43.579Z,5.81
2019-03-26T04:29:15.740Z,5.82
2019-03-26T04:31:48.093Z,5.81
2019-03-26T04:34:22.706Z,5.74
2019-03-26T04:36:54.260Z,5.90
2019-03-26T04:39:26.629Z,5.90
2019-03-26T04:41:59.012Z,5.89
2019-03-26T04:44:31.524Z,5.93
2019-03-26T04:47:03.743Z,5.94
2019-03-26T04:49:35.914Z,5.89
2019-03-26T04:52:08.154Z,6.01
2019-03-26T04:54:40.262Z,6.03
2019-03-26T04:57:12.484Z,6.02
2019-03-26T04:59:44.809Z,6.09
2019-03-26T05:02:16.980Z,6.10
2019-03-26T05:04:49.149Z,6.07
2019-03-26T05:07:21.257Z,6.15
2019-03-26T05:09:53.505Z,6.14
2019-03-26T05:12:25.629Z,5.99
2019-03-26T05:14:57.791Z,5.97
2019-03-26T05:17:29.896Z,5.94
2019-03-26T05:20:02.050Z,5.88
2019-03-26T05:22:34.142Z,5.90
2019-03-26T05:25:06.872Z,5.81
2019-03-26T05:27:45.349Z,5.99
2019-03-26T05:30:13.480Z,6.07
2019-03-26T05:32:45.684Z,5.99
2019-03-26T05:35:17.758Z,5.86
2019-03-26T05:37:49.995Z,6.02
2019-03-26T05:40:22.192Z,5.96
2019-03-26T05:42:54.445Z,5.86
2019-03-26T05:45:26.620Z,5.96
2019-03-26T05:47:58.848Z,5.88
2019-03-26T05:50:30.951Z,5.95
2019-03-26T05:53:03.322Z,6.08
2019-03-26T05:55:35.432Z,6.18
2019-03-26T05:58:07.582Z,6.12
2019-03-26T06:00:39.838Z,6.01
2019-03-26T06:03:12.040Z,6.01
2019-03-26T06:05:44.134Z,6.07
2019-03-26T06:08:16.376Z,6.07
2019-03-26T06:10:48.467Z,6.08
2019-03-26T06:13:20.748Z,6.17
2019-03-26T06:15:52.877Z,6.20
2019-03-26T06:18:25.024Z,6.20
2019-03-26T06:20:57.168Z,6.30
2019-03-26T06:23:29.366Z,6.44
2019-03-26T06:26:01.525Z,6.65
2019-03-26T06:28:33.903Z,6.61
2019-03-26T06:31:06.209Z,6.67
2019-03-26T06:33:38.396Z,6.72
2019-03-26T06:36:10.952Z,6.66
2019-03-26T06:38:43.266Z,6.42
2019-03-26T06:41:15.590Z,6.43
2019-03-26T06:43:47.704Z,6.59
2019-03-26T06:46:19.989Z,6.62
2019-03-26T06:48:52.200Z,6.53
2019-03-26T06:51:24.415Z,6.69
2019-03-26T06:53:56.608Z,6.81
2019-03-26T06:56:28.756Z,7.15
2019-03-26T06:59:01.001Z,7.30
2019-03-26T07:01:33.829Z,7.29
2019-03-26T07:04:06.685Z,7.42
2019-03-26T07:06:38.879Z,7.49
2019-03-26T07:09:11.299Z,7.21
2019-03-26T07:11:43.635Z,7.09
2019-03-26T07:14:15.925Z,6.99
2019-03-26T07:16:48.634Z,6.98
2019-03-26T07:19:23.093Z,6.94
2019-03-26T07:21:55.427Z,7.16
2019-03-26T07:24:28.019Z,7.10
2019-03-26T07:27:00.363Z,6.91
2019-03-26T07:29:33.510Z,6.98
2019-03-26T07:32:06.512Z,7.14
2019-03-26T07:34:39.147Z,7.24
2019-03-26T07:37:11.485Z,7.31
2019-03-26T07:39:44.262Z,7.01
2019-03-26T07:42:16.726Z,6.99
2019-03-26T07:44:48.844Z,6.73
2019-03-26T07:47:21.064Z,6.85
2019-03-26T07:49:53.330Z,7.03
2019-03-26T07:52:25.919Z,7.30
2019-03-26T07:54:58.580Z,7.72
2019-03-26T07:57:30.845Z,7.83
2019-03-26T08:00:03.171Z,8.13
2019-03-26T08:02:35.452Z,8.70
2019-03-26T08:05:09.668Z,8.65
2019-03-26T08:07:41.989Z,8.20
2019-03-26T08:10:14.559Z,8.15
2019-03-26T08:12:46.888Z,8.28
2019-03-26T08:15:20.348Z,8.77
2019-03-26T08:17:52.776Z,8.36
2019-03-26T08:20:28.056Z,7.75
2019-03-26T08:23:00.608Z,8.11
2019-03-26T08:25:33.951Z,8.83
2019-03-26T08:28:06.448Z,9.43
2019-03-26T08:30:39.082Z,9.75
2019-03-26T08:33:11.362Z,9.45
2019-03-26T08:35:43.705Z,8.79
2019-03-26T08:38:16.026Z,8.77
2019-03-26T08:40:48.644Z,8.55
2019-03-26T08:43:20.679Z,8.65
2019-03-26T08:45:52.912Z,9.15
2019-03-26T08:48:25.111Z,9.18
2019-03-26T08:50:57.279Z,8.96
2019-03-26T08:53:29.619Z,8.91
2019-03-26T08:56:01.844Z,8.87
2019-03-26T08:58:34.000Z,9.10
2019-03-26T09:01:06.440Z,9.40
2019-03-26T09:03:38.600Z,9.52
2019-03-26T09:06:10.820Z,9.06
2019-03-26T09:08:43.245Z,8.93
2019-03-26T09:11:15.563Z,9.66
2019-03-26T09:13:47.958Z,10.15
2019-03-26T09:16:20.152Z,10.08
2019-03-26T09:18:52.583Z,10.04
2019-03-26T09:21:25.225Z,10.18
2019-03-26T09:23:57.639Z,9.68
2019-03-26T09:26:29.876Z,9.31
2019-03-26T09:29:02.122Z,9.15
2019-03-26T09:31:34.872Z,9.04
2019-03-26T09:34:09.794Z,9.09
2019-03-26T09:36:41.003Z,9.05
2019-03-26T09:39:13.178Z,8.87
2019-03-26T09:41:45.441Z,8.73
2019-03-26T09:44:17.841Z,8.78
2019-03-26T09:46:50.070Z,9.04
2019-03-26T09:49:22.169Z,9.00
2019-03-26T09:51:54.581Z,9.31
2019-03-26T09:54:26.687Z,9.64
2019-03-26T09:56:58.858Z,9.70
2019-03-26T09:59:30.992Z,9.53
2019-03-26T10:02:03.105Z,9.26
2019-03-26T10:04:38.338Z,9.55
2019-03-26T10:07:20.813Z,9.60
2019-03-26T10:09:44.362Z,10.27
2019-03-26T10:12:16.813Z,10.99
2019-03-26T10:14:48.911Z,11.71
2019-03-26T10:17:23.278Z,11.24
2019-03-26T10:19:59.681Z,10.85
2019-03-26T10:22:43.019Z,10.48
2019-03-26T10:25:26.130Z,9.87
2019-03-26T10:28:10.291Z,9.66
2019-03-26T10:30:47.033Z,9.98
2019-03-26T10:33:19.202Z,10.48
2019-03-26T10:35:51.423Z,10.58
2019-03-26T10:38:24.552Z,10.63
2019-03-26T10:40:56.656Z,10.69
2019-03-26T10:43:28.766Z,10.35
2019-03-26T10:46:00.954Z,10.37
2019-03-26T10:48:33.251Z,10.59
2019-03-26T10:51:05.552Z,10.30
2019-03-26T10:53:37.654Z,9.75
2019-03-26T10:56:10.178Z,9.72
2019-03-26T10:58:42.500Z,9.46
2019-03-26T11:01:14.842Z,9.80
2019-03-26T11:03:47.270Z,10.22
2019-03-26T11:06:19.642Z,10.32
2019-03-26T11:08:51.765Z,10.54
2019-03-26T11:11:23.974Z,10.36
2019-03-26T11:13:58.683Z,10.24
2019-03-26T11:16:30.052Z,9.82
2019-03-26T11:19:02.367Z,9.77
2019-03-26T11:21:34.646Z,9.93
2019-03-26T11:24:06.981Z,10.62
2019-03-26T11:26:39.182Z,10.70
2019-03-26T11:29:11.347Z,10.81
2019-03-26T11:31:43.515Z,10.68
2019-03-26T11:34:15.758Z,10.54
2019-03-26T11:36:47.924Z,10.44
2019-03-26T11:39:32.173Z,10.18
2019-03-26T11:41:54.054Z,10.61
2019-03-26T11:44:26.279Z,10.02
2019-03-26T11:46:58.586Z,9.88
2019-03-26T11:49:30.597Z,9.68
2019-03-26T11:52:03.133Z,9.49
2019-03-26T11:54:35.287Z,9.43
2019-03-26T11:57:10.715Z,9.49
2019-03-26T11:59:43.254Z,9.72
2019-03-26T12:02:15.453Z,9.91
2019-03-26T12:04:47.892Z,9.92
2019-03-26T12:07:20.074Z,10.11
2019-03-26T12:09:52.291Z,10.18
2019-03-26T12:12:24.475Z,10.27
2019-03-26T12:14:56.533Z,9.86
2019-03-26T12:17:28.807Z,9.54
2019-03-26T12:20:00.915Z,8.90
2019-03-26T12:22:33.216Z,8.72
2019-03-26T12:25:05.848Z,8.64
2019-03-26T12:27:38.010Z,8.78
2019-03-26T12:30:11.481Z,9.08
2019-03-26T12:32:48.945Z,9.08
2019-03-26T12:35:48.072Z,9.08
2019-03-26T12:38:43.657Z,9.44
2019-03-26T12:41:25.313Z,9.69
2019-03-26T12:43:57.487Z,9.98
2019-03-26T12:46:29.545Z,10.25
2019-03-26T12:49:01.616Z,10.59
2019-03-26T12:51:39.142Z,10.96
2019-03-26T12:54:10.489Z,11.18
2019-03-26T12:56:42.533Z,11.23
2019-03-26T12:59:14.719Z,10.82
2019-03-26T13:01:47.137Z,11.12
2019-03-26T13:04:24.836Z,11.12
2019-03-26T13:06:56.870Z,10.78
2019-03-26T13:09:28.923Z,10.71
2019-03-26T13:12:01.207Z,10.99
2019-03-26T13:14:33.287Z,11.26
2019-03-26T13:17:05.431Z,11.50
2019-03-26T13:19:37.567Z,11.61
2019-03-26T13:22:09.836Z,11.50
2019-03-26T13:25:00.596Z,11.31
2019-03-26T13:27:32.735Z,10.75
2019-03-26T13:30:05.004Z,10.44
2019-03-26T13:32:37.251Z,10.23
2019-03-26T13:35:09.966Z,10.03
2019-03-26T13:37:42.085Z,9.70
2019-03-26T13:40:26.692Z,9.88
2019-03-26T13:42:49.861Z,9.91
2019-03-26T13:45:22.020Z,10.02
2019-03-26T13:47:54.356Z,9.75
2019-03-26T13:50:26.432Z,9.42
2019-03-26T13:52:58.522Z,9.07
2019-03-26T13:55:30.716Z,9.00
2019-03-26T13:58:02.830Z,8.97
2019-03-26T14:00:40.692Z,8.97
2019-03-26T14:03:12.936Z,9.14
2019-03-26T14:05:45.065Z,9.28
2019-03-26T14:08:17.026Z,9.36
2019-03-26T14:10:49.068Z,9.32
2019-03-26T14:13:21.219Z,9.31
2019-03-26T14:15:53.379Z,9.12
2019-03-26T14:18:25.439Z,9.16
2019-03-26T14:20:57.529Z,9.15
2019-03-26T14:23:29.655Z,9.26
2019-03-26T14:26:01.747Z,9.45
2019-03-26T14:28:33.810Z,9.44
2019-03-26T14:31:05.900Z,9.39
2019-03-26T14:33:37.877Z,9.60
2019-03-26T14:36:10.074Z,9.58
2019-03-26T14:38:42.189Z,9.64
2019-03-26T14:41:14.230Z,9.72
2019-03-26T14:43:46.415Z,9.51
2019-03-26T14:46:18.502Z,9.35
2019-03-26T14:48:50.467Z,9.18
2019-03-26T14:51:23.207Z,9.20
2019-03-26T14:53:55.470Z,9.26
2019-03-26T14:56:27.661Z,9.44
2019-03-26T14:59:02.767Z,9.66
2019-03-26T15:01:34.848Z,9.70
2019-03-26T15:04:07.003Z,9.72
2019-03-26T15:06:39.157Z,9.74
2019-03-26T15:09:12.064Z,9.61
2019-03-26T15:11:44.179Z,9.69
2019-03-26T15:14:16.266Z,9.79
2019-03-26T15:16:48.261Z,9.93
2019-03-26T15:19:20.287Z,10.11
2019-03-26T15:21:52.462Z,10.32
2019-03-26T15:24:24.688Z,10.56
2019-03-26T15:26:56.875Z,10.48
2019-03-26T15:29:28.935Z,10.59
2019-03-26T15:32:01.129Z,10.42
2019-03-26T15:34:36.283Z,10.65
2019-03-26T15:37:08.505Z,10.53
2019-03-26T15:39:40.627Z,10.51
2019-03-26T15:42:12.874Z,10.27
2019-03-26T15:44:45.318Z,9.95
2019-03-26T15:47:17.528Z,9.97
2019-03-26T15:49:49.677Z,9.65
2019-03-26T15:52:21.938Z,9.67
2019-03-26T15:54:54.050Z,9.59
2019-03-26T15:57:26.319Z,9.62
2019-03-26T15:59:58.665Z,9.62
2019-03-26T16:02:30.770Z,9.67
2019-03-26T16:05:03.054Z,9.79
2019-03-26T16:07:35.095Z,9.65
2019-03-26T16:10:08.388Z,9.44
2019-03-26T16:12:41.580Z,9.59
2019-03-26T16:15:14.013Z,9.53
2019-03-26T16:17:49.315Z,9.43
2019-03-26T16:20:21.544Z,9.51
2019-03-26T16:22:53.677Z,9.32
2019-03-26T16:25:25.855Z,9.27
2019-03-26T16:27:58.187Z,9.27
2019-03-26T16:30:30.923Z,9.20
2019-03-26T16:33:05.358Z,9.17
2019-03-26T16:35:40.020Z,9.12
2019-03-26T16:38:11.444Z,9.09
2019-03-26T16:40:43.800Z,9.09
2019-03-26T16:43:20.155Z,9.14
2019-03-26T16:45:52.448Z,9.07
2019-03-26T16:48:24.547Z,9.07
2019-03-26T16:50:59.241Z,9.14
2019-03-26T16:53:31.648Z,9.00
2019-03-26T16:56:03.857Z,8.97
2019-03-26T16:58:35.993Z,8.94
2019-03-26T17:01:08.177Z,8.98
2019-03-26T17:03:40.283Z,9.02
2019-03-26T17:06:12.270Z,8.89
2019-03-26T17:08:44.594Z,8.81
2019-03-26T17:11:16.768Z,8.88
2019-03-26T17:13:49.113Z,8.77
2019-03-26T17:16:21.294Z,8.87
2019-03-26T17:18:53.450Z,8.83
2019-03-26T17:21:27.657Z,8.81
2019-03-26T17:23:59.815Z,8.68
2019-03-26T17:26:31.944Z,8.79
2019-03-26T17:29:04.094Z,8.74
2019-03-26T17:31:36.480Z,8.74
2019-03-26T17:34:08.646Z,8.69
2019-03-26T17:36:40.863Z,8.71
2019-03-26T17:39:13.027Z,8.58
2019-03-26T17:41:45.588Z,8.58
2019-03-26T17:44:17.685Z,8.49
2019-03-26T17:46:49.956Z,8.66
2019-03-26T17:49:21.975Z,8.63
2019-03-26T17:51:54.291Z,8.56
2019-03-26T17:54:26.436Z,8.63
2019-03-26T17:56:58.678Z,8.51
2019-03-26T17:59:30.902Z,8.51
2019-03-26T18:02:03.214Z,8.59
2019-03-26T18:04:35.331Z,8.56
2019-03-26T18:07:07.558Z,8.49
2019-03-26T18:09:39.570Z,8.41
2019-03-26T18:12:11.706Z,8.31
2019-03-26T18:14:43.873Z,8.47
2019-03-26T18:17:18.599Z,8.44
2019-03-26T18:19:53.541Z,8.43
2019-03-26T18:22:26.135Z,8.55
2019-03-26T18:24:58.396Z,8.46
2019-03-26T18:27:32.041Z,8.33
2019-03-26T18:30:06.313Z,8.35
2019-03-26T18:32:40.722Z,8.33
2019-03-26T18:35:17.559Z,8.31
2019-03-26T18:37:52.431Z,8.24
2019-03-26T18:40:25.599Z,8.20
2019-03-26T18:42:57.972Z,8.29
2019-03-26T18:45:30.051Z,8.18
2019-03-26T18:48:04.900Z,8.19
2019-03-26T18:50:37.942Z,8.15
2019-03-26T18:53:12.758Z,8.30
2019-03-26T18:55:50.786Z,8.21
2019-03-26T18:58:32.824Z,8.09
2019-03-26T19:01:09.993Z,8.03
2019-03-26T19:04:01.296Z,8.02
2019-03-26T19:06:56.256Z,8.05
2019-03-26T19:09:58.305Z,8.11
2019-03-26T19:12:39.773Z,8.06
2019-03-26T19:15:18.161Z,8.10
2019-03-26T19:17:52.185Z,8.31
2019-03-26T19:20:38.237Z,8.22
2019-03-26T19:23:13.214Z,8.30
2019-03-26T19:25:49.131Z,8.13
2019-03-26T19:28:40.058Z,8.03
2019-03-26T19:31:21.292Z,7.95
2019-03-26T19:34:33.161Z,8.13
2019-03-26T19:37:22.502Z,8.02
2019-03-26T19:40:19.037Z,7.95
2019-03-26T19:43:32.394Z,7.96
2019-03-26T19:46:14.953Z,8.15
2019-03-26T19:49:10.246Z,8.15
2019-03-26T19:51:57.671Z,8.20
2019-03-26T19:54:38.530Z,8.27
2019-03-26T19:57:22.553Z,8.23
2019-03-26T19:59:56.892Z,8.23
2019-03-26T20:02:29.135Z,8.35
2019-03-26T20:05:04.980Z,8.33
2019-03-26T20:07:37.088Z,8.30
2019-03-26T20:10:11.741Z,8.23
2019-03-26T20:12:45.097Z,8.33
2019-03-26T20:15:27.716Z,8.30
2019-03-26T20:18:01.384Z,8.28
2019-03-26T20:20:41.736Z,8.32
2019-03-26T20:23:15.117Z,8.30
2019-03-26T20:25:50.642Z,8.25
2019-03-26T20:28:22.967Z,8.22
2019-03-26T20:30:56.891Z,8.16
2019-03-26T20:33:34.650Z,8.21
2019-03-26T20:36:08.213Z,8.16
2019-03-26T20:38:44.259Z,8.16
2019-03-26T20:41:16.527Z,8.15
2019-03-26T20:43:53.311Z,8.11
2019-03-26T20:46:28.576Z,7.99
2019-03-26T20:49:02.546Z,7.94
2019-03-26T20:51:34.838Z,7.92
2019-03-26T20:54:09.958Z,7.91
2019-03-26T20:56:42.409Z,7.87
2019-03-26T20:59:14.964Z,7.86
2019-03-26T21:02:00.065Z,7.84
2019-03-26T21:04:33.813Z,7.94
2019-03-26T21:07:07.541Z,7.96
2019-03-26T21:09:45.280Z,7.89
2019-03-26T21:12:17.527Z,7.94
2019-03-26T21:14:49.659Z,7.90
2019-03-26T21:17:21.896Z,7.88
2019-03-26T21:19:53.984Z,7.80
2019-03-26T21:22:26.104Z,7.93
2019-03-26T21:24:58.186Z,7.86
2019-03-26T21:27:30.240Z,7.94
2019-03-26T21:30:10.631Z,7.87
2019-03-26T21:32:36.492Z,7.84
2019-03-26T21:35:10.071Z,7.84
2019-03-26T21:37:48.166Z,7.83
2019-03-26T21:40:24.575Z,7.83
2019-03-26T21:43:00.633Z,7.82
2019-03-26T21:46:16.653Z,7.84
2019-03-26T21:49:01.244Z,7.76
2019-03-26T21:51:43.755Z,7.69
2019-03-26T21:54:22.872Z,7.69
2019-03-26T21:57:01.965Z,7.67
2019-03-26T21:59:35.118Z,7.68
2019-03-26T22:02:08.451Z,7.54
2019-03-26T22:04:48.421Z,7.47
2019-03-26T22:07:23.186Z,7.52
2019-03-26T22:10:00.934Z,7.56
2019-03-26T22:12:45.407Z,7.52
2019-03-26T22:15:20.746Z,7.48
2019-03-26T22:17:54.392Z,7.32
2019-03-26T22:20:28.976Z,7.35
2019-03-26T22:23:04.407Z,7.24
2019-03-26T22:25:40.210Z,7.18
2019-03-26T22:28:15.876Z,7.23
2019-03-26T22:30:48.024Z,7.04
2019-03-26T22:33:31.582Z,6.98
2019-03-26T22:36:05.283Z,6.97
2019-03-26T22:38:38.606Z,6.82
2019-03-26T22:41:12.290Z,6.77
2019-03-26T22:43:45.776Z,6.64
2019-03-26T22:46:19.290Z,6.57
2019-03-26T22:48:53.957Z,6.39
2019-03-26T22:51:36.030Z,6.29
2019-03-26T22:54:11.023Z,6.29
2019-03-26T22:56:43.156Z,6.23
2019-03-26T22:59:16.417Z,6.12
2019-03-26T23:02:00.053Z,6.01
2019-03-26T23:04:40.524Z,5.98
2019-03-26T23:07:12.586Z,6.02
2019-03-26T23:09:46.295Z,5.95
2019-03-26T23:12:18.372Z,5.92
2019-03-26T23:14:53.264Z,5.92
2019-03-26T23:17:25.367Z,5.90
2019-03-26T23:20:00.718Z,5.84
2019-03-26T23:22:32.967Z,5.79
2019-03-26T23:25:05.506Z,5.75
2019-03-26T23:27:40.479Z,5.69
2019-03-26T23:30:17.146Z,5.62
2019-03-26T23:32:54.274Z,5.55
2019-03-26T23:35:28.931Z,5.47
2019-03-26T23:38:11.058Z,5.38
2019-03-26T23:40:43.378Z,5.35
2019-03-26T23:43:16.861Z,5.32
2019-03-26T23:45:53.882Z,5.30
2019-03-26T23:48:33.175Z,5.27
2019-03-26T23:51:10.333Z,5.32
2019-03-26T23:53:51.792Z,5.34
2019-03-26T23:56:28.128Z,5.37
2019-03-26T23:59:00.377Z,5.37
